Time;durP1;ratioP1;P1;durP2;ratioP2;P2;SDS_P1;SDS_P2;PMS_P1;PMS_P2;Temp;Humidity;BMP_temperature;BMP_pressure;BME280_temperature;BME280_humidity;BME280_pressure;Samples;Min_cycle;Max_cycle;Signal;HPM_P1;HPM_P2
2023/06/09 00:01:26;;;;;;;13.32;8.40;;;18.00;99.90;;;;;;5092460;28;20184;-48
2023/06/09 00:03:52;;;;;;;10.82;8.25;;;18.00;99.90;;;;;;5092860;28;20170;-48
2023/06/09 00:06:22;;;;;;;13.20;7.35;;;17.80;99.90;;;;;;5092681;28;20161;-48
2023/06/09 00:08:50;;;;;;;15.05;7.35;;;17.90;99.90;;;;;;5091893;28;20225;-49
2023/06/09 00:11:16;;;;;;;15.70;7.22;;;17.80;99.90;;;;;;5092201;28;20158;-48
2023/06/09 00:13:42;;;;;;;24.73;8.55;;;17.30;99.90;;;;;;5092278;28;20164;-49
2023/06/09 00:16:07;;;;;;;13.93;7.97;;;17.40;99.90;;;;;;5092400;28;20157;-48
2023/06/09 00:18:34;;;;;;;16.15;7.55;;;17.60;99.90;;;;;;5092088;28;20200;-48
2023/06/09 00:21:00;;;;;;;15.18;8.13;;;17.50;99.90;;;;;;5092113;28;20696;-47
2023/06/09 00:23:28;;;;;;;17.13;7.38;;;17.30;99.90;;;;;;5092337;28;20183;-48
2023/06/09 00:25:54;;;;;;;11.88;7.60;;;17.40;99.90;;;;;;5092766;28;20169;-48
2023/06/09 00:28:20;;;;;;;26.10;8.95;;;17.40;99.90;;;;;;5092408;28;20197;-48
2023/06/09 00:30:46;;;;;;;10.43;7.85;;;17.50;99.90;;;;;;5091991;28;20189;-48
2023/06/09 00:33:12;;;;;;;19.58;7.97;;;17.40;99.90;;;;;;5092006;28;20209;-48
2023/06/09 00:35:37;;;;;;;16.35;8.57;;;17.70;99.90;;;;;;5092098;28;20728;-48
2023/06/09 00:38:03;;;;;;;11.43;8.10;;;17.20;99.90;;;;;;5091826;28;20204;-48
2023/06/09 00:40:29;;;;;;;20.60;8.93;;;17.50;99.90;;;;;;5091890;28;20524;-48
2023/06/09 00:42:55;;;;;;;20.70;8.45;;;17.50;99.90;;;;;;5091849;28;20173;-48
2023/06/09 00:45:21;;;;;;;18.50;8.52;;;17.40;99.90;;;;;;5092504;28;20169;-48
2023/06/09 00:47:46;;;;;;;18.30;8.10;;;17.40;99.90;;;;;;5091785;28;20173;-48
2023/06/09 00:50:15;;;;;;;21.02;8.88;;;17.50;99.90;;;;;;5091559;28;20242;-47
2023/06/09 00:52:41;;;;;;;15.32;9.02;;;17.50;99.90;;;;;;5091607;28;20170;-48
2023/06/09 00:55:09;;;;;;;17.25;9.02;;;17.70;99.90;;;;;;5091611;28;20168;-48
2023/06/09 00:57:36;;;;;;;20.13;9.07;;;17.50;99.90;;;;;;5091610;28;20209;-48
2023/06/09 01:00:06;;;;;;;19.60;9.65;;;17.80;99.90;;;;;;5091691;28;20153;-48
2023/06/09 01:02:31;;;;;;;19.55;10.93;;;17.30;99.90;;;;;;5091592;28;20197;-48
2023/06/09 01:04:57;;;;;;;11.35;9.55;;;17.00;99.90;;;;;;5091656;28;20191;-48
2023/06/09 01:07:50;;;;;;;18.27;10.40;;;17.30;99.90;;;;;;5091916;28;20209;-48
2023/06/09 01:10:21;;;;;;;15.65;9.73;;;17.20;99.90;;;;;;5091597;28;20168;-48
2023/06/09 01:13:02;;;;;;;14.48;9.60;;;17.20;99.90;;;;;;5091513;28;20165;-48
2023/06/09 01:15:31;;;;;;;11.57;9.63;;;16.90;99.90;;;;;;5091786;28;20193;-47
2023/06/09 01:18:02;;;;;;;13.75;10.15;;;16.60;99.90;;;;;;5091407;28;20205;-48
2023/06/09 01:20:56;;;;;;;15.48;9.82;;;17.20;99.90;;;;;;5091724;28;20169;-48
2023/06/09 01:23:33;;;;;;;16.38;10.45;;;17.20;99.90;;;;;;5091714;28;20547;-48
2023/06/09 01:26:01;;;;;;;14.15;10.00;;;17.20;99.90;;;;;;5091387;28;20165;-48
2023/06/09 01:28:28;;;;;;;10.90;9.77;;;17.30;99.90;;;;;;5091700;28;20173;-48
2023/06/09 01:30:55;;;;;;;13.80;11.07;;;17.30;99.90;;;;;;5091689;28;20177;-49
2023/06/09 01:33:23;;;;;;;14.57;10.95;;;17.30;99.90;;;;;;5091997;28;20173;-47
2023/06/09 01:35:50;;;;;;;15.18;10.60;;;17.30;99.90;;;;;;5091213;28;20173;-48
2023/06/09 01:38:18;;;;;;;10.93;9.82;;;17.40;99.90;;;;;;5091318;28;20208;-48
2023/06/09 01:40:44;;;;;;;16.25;10.02;;;17.30;99.90;;;;;;5091443;28;20624;-48
2023/06/09 01:43:09;;;;;;;23.35;9.52;;;17.00;99.90;;;;;;5091333;28;20173;-48
2023/06/09 01:45:35;;;;;;;18.20;9.98;;;17.50;99.90;;;;;;5073147;28;20169;-48
2023/06/09 01:48:17;;;;;;;15.50;9.77;;;17.40;99.90;;;;;;5091266;28;20633;-47
2023/06/09 01:50:55;;;;;;;14.68;9.80;;;17.00;99.90;;;;;;5091139;28;20161;-48
2023/06/09 01:53:28;;;;;;;16.67;9.18;;;16.50;99.90;;;;;;5091573;28;20169;-48
2023/06/09 01:56:06;;;;;;;14.02;9.75;;;16.90;99.90;;;;;;5091087;28;20161;-48
2023/06/09 01:58:46;;;;;;;15.00;10.05;;;17.00;99.90;;;;;;5090996;28;20204;-48
2023/06/09 02:01:16;;;;;;;14.77;10.50;;;17.10;99.90;;;;;;5092781;28;20180;-48
2023/06/09 02:03:44;;;;;;;18.02;10.30;;;16.90;99.90;;;;;;5094827;28;20166;-48
2023/06/09 02:06:11;;;;;;;15.40;10.73;;;17.10;99.90;;;;;;5094805;28;20161;-48
2023/06/09 02:08:37;;;;;;;13.25;10.43;;;17.40;99.90;;;;;;5094691;28;20604;-48
2023/06/09 02:11:04;;;;;;;12.63;10.32;;;17.00;99.90;;;;;;5094650;28;20162;-47
2023/06/09 02:13:29;;;;;;;13.02;11.30;;;17.00;99.90;;;;;;5094645;28;20165;-47
2023/06/09 02:15:55;;;;;;;13.18;11.15;;;16.60;99.90;;;;;;5094546;28;20299;-48
2023/06/09 02:18:22;;;;;;;16.45;9.75;;;16.80;99.90;;;;;;5095090;28;20212;-48
2023/06/09 02:20:48;;;;;;;16.60;9.95;;;16.80;99.90;;;;;;5094388;28;20641;-48
2023/06/09 02:23:17;;;;;;;15.98;9.18;;;16.50;99.90;;;;;;5094422;28;20180;-49
2023/06/09 02:25:42;;;;;;;12.05;9.25;;;16.80;99.90;;;;;;5094372;28;20193;-48
2023/06/09 02:28:08;;;;;;;16.25;11.18;;;16.50;99.90;;;;;;5094357;28;20200;-49
2023/06/09 02:30:35;;;;;;;21.52;10.63;;;16.40;99.90;;;;;;5094534;28;20166;-49
2023/06/09 02:33:01;;;;;;;15.75;10.77;;;16.70;99.90;;;;;;5076028;28;20173;-48
2023/06/09 02:35:30;;;;;;;16.92;11.25;;;16.60;99.90;;;;;;5094188;28;20249;-48
2023/06/09 02:38:00;;;;;;;13.23;10.23;;;16.60;99.90;;;;;;5094115;28;20761;-48
2023/06/09 02:40:27;;;;;;;17.55;12.88;;;16.40;99.90;;;;;;5094269;28;20205;-48
2023/06/09 02:42:53;;;;;;;13.45;11.30;;;16.60;99.90;;;;;;5094539;28;20169;-48
2023/06/09 02:45:19;;;;;;;13.70;11.32;;;;;;;;;;5093948;28;20654;-48
2023/06/09 02:47:44;;;;;;;15.15;11.95;;;16.60;99.90;;;;;;5094186;28;20169;-48
2023/06/09 02:50:10;;;;;;;17.75;11.68;;;16.60;99.90;;;;;;5093888;28;20161;-48
2023/06/09 02:52:36;;;;;;;12.55;10.85;;;16.60;99.90;;;;;;5093724;28;20256;-47
2023/06/09 02:55:03;;;;;;;13.90;12.45;;;16.70;99.90;;;;;;5093660;28;20167;-47
2023/06/09 02:57:28;;;;;;;19.05;12.48;;;16.60;99.90;;;;;;5093760;28;20288;-48
2023/06/09 02:59:54;;;;;;;18.02;12.05;;;16.70;99.90;;;;;;5093807;28;20252;-48
2023/06/09 03:02:20;;;;;;;31.33;19.55;;;16.60;99.90;;;;;;5093934;28;20538;-48
2023/06/09 03:04:46;;;;;;;50.03;28.10;;;16.60;99.90;;;;;;5093182;28;20165;-48
2023/06/09 03:07:13;;;;;;;34.25;22.73;;;16.60;99.90;;;;;;5093634;28;20217;-48
2023/06/09 03:09:42;;;;;;;16.38;14.18;;;16.90;99.90;;;;;;5093755;28;20172;-48
2023/06/09 03:12:08;;;;;;;24.05;17.75;;;16.60;99.90;;;;;;5092275;28;20197;-48
2023/06/09 03:14:34;;;;;;;22.73;14.98;;;16.60;99.90;;;;;;5093457;28;20162;-48
2023/06/09 03:17:00;;;;;;;18.63;13.65;;;16.80;99.90;;;;;;5093340;28;20249;-48
2023/06/09 03:19:26;;;;;;;16.48;13.95;;;16.70;99.90;;;;;;5093401;28;20248;-49
2023/06/09 03:21:52;;;;;;;17.02;14.18;;;16.60;99.90;;;;;;5075538;28;20262;-48
2023/06/09 03:24:19;;;;;;;15.68;14.07;;;16.70;99.90;;;;;;5093181;28;20645;-48
2023/06/09 03:26:45;;;;;;;15.90;14.27;;;16.60;99.90;;;;;;5093256;28;20202;-48
2023/06/09 03:29:10;;;;;;;20.83;14.05;;;17.00;99.90;;;;;;5093292;28;20511;-48
2023/06/09 03:31:36;;;;;;;16.63;13.10;;;16.50;99.90;;;;;;5093178;28;20157;-48
2023/06/09 03:34:02;;;;;;;14.95;10.88;;;16.50;99.90;;;;;;5093059;28;20625;-49
2023/06/09 03:36:27;;;;;;;20.98;12.35;;;16.50;99.90;;;;;;5092851;28;20192;-48
2023/06/09 03:38:54;;;;;;;13.63;11.93;;;16.50;99.90;;;;;;5093654;28;20681;-48
2023/06/09 03:41:21;;;;;;;15.80;11.43;;;16.50;99.90;;;;;;5093531;28;20177;-48
2023/06/09 03:43:47;;;;;;;12.75;10.18;;;16.30;99.90;;;;;;5093143;28;20188;-48
2023/06/09 03:46:12;;;;;;;14.13;12.20;;;16.90;99.90;;;;;;5092864;28;20245;-48
2023/06/09 03:48:39;;;;;;;14.95;10.88;;;16.40;99.90;;;;;;5092716;28;20165;-47
2023/06/09 03:51:05;;;;;;;15.05;10.75;;;16.30;99.90;;;;;;5092753;28;20218;-48
2023/06/09 03:53:30;;;;;;;14.38;11.43;;;16.50;99.90;;;;;;5092917;28;20252;-48
2023/06/09 03:55:56;;;;;;;15.23;12.13;;;16.30;99.90;;;;;;5092676;28;20201;-48
2023/06/09 03:58:22;;;;;;;13.00;11.60;;;16.40;99.90;;;;;;5092841;28;20208;-46
2023/06/09 04:00:48;;;;;;;19.10;13.10;;;16.70;99.90;;;;;;5093087;28;20169;-48
2023/06/09 04:03:13;;;;;;;18.40;14.32;;;16.60;99.90;;;;;;5092481;28;20366;-47
2023/06/09 04:05:39;;;;;;;17.65;12.20;;;16.60;99.90;;;;;;5092700;28;20173;-47
2023/06/09 04:08:05;;;;;;;19.52;13.40;;;16.50;99.90;;;;;;5092278;28;20579;-48
2023/06/09 04:10:30;;;;;;;15.25;12.25;;;;;;;;;;5092439;28;20215;-48
2023/06/09 04:12:57;;;;;;;18.83;10.85;;;16.30;99.90;;;;;;5092328;28;20256;-48
2023/06/09 04:15:22;;;;;;;14.73;9.18;;;16.80;99.90;;;;;;5092718;28;20172;-48
2023/06/09 04:17:48;;;;;;;15.70;9.65;;;17.40;99.90;;;;;;5092394;28;20574;-49
2023/06/09 04:20:13;;;;;;;14.52;10.13;;;16.70;99.90;;;;;;5092135;28;20166;-48
2023/06/09 04:22:52;;;;;;;13.60;11.07;;;16.40;99.90;;;;;;5092133;28;20173;-48
2023/06/09 04:25:25;;;;;;;13.05;11.65;;;16.60;99.90;;;;;;5091977;28;20168;-47
2023/06/09 04:27:55;;;;;;;17.13;12.90;;;16.40;99.90;;;;;;5092674;28;20286;-47
2023/06/09 04:30:25;;;;;;;19.50;13.85;;;17.00;99.90;;;;;;5092439;28;20329;-47
2023/06/09 04:32:55;;;;;;;17.65;15.57;;;16.80;99.90;;;;;;5092664;28;20201;-48
2023/06/09 04:35:21;;;;;;;20.10;14.52;;;17.10;99.90;;;;;;5092369;28;20702;-47
2023/06/09 04:37:48;;;;;;;20.45;15.35;;;16.90;99.90;;;;;;5091541;28;20211;-47
2023/06/09 04:40:21;;;;;;;15.45;13.73;;;17.30;99.90;;;;;;5091710;28;20481;-47
2023/06/09 04:42:50;;;;;;;22.13;14.60;;;17.30;99.90;;;;;;5092028;28;20235;-47
2023/06/09 04:45:17;;;;;;;16.15;13.13;;;17.70;99.90;;;;;;5091844;28;20157;-48
2023/06/09 04:47:42;;;;;;;19.00;13.20;;;17.80;99.90;;;;;;5091827;28;20206;-47
2023/06/09 04:50:08;;;;;;;19.17;11.98;;;17.90;99.90;;;;;;5091768;28;20569;-47
2023/06/09 04:52:38;;;;;;;17.73;11.45;;;18.00;99.90;;;;;;5091759;28;20173;-47
2023/06/09 04:55:03;;;;;;;15.80;12.63;;;18.00;99.90;;;;;;5091733;28;20153;-47
2023/06/09 04:57:30;;;;;;;16.63;12.30;;;18.00;99.90;;;;;;5091682;28;20204;-47
2023/06/09 04:59:57;;;;;;;15.30;12.60;;;18.40;99.90;;;;;;5091683;28;20168;-47
2023/06/09 05:02:22;;;;;;;14.57;11.88;;;18.10;99.90;;;;;;5092183;28;20594;-48
2023/06/09 05:04:48;;;;;;;15.07;12.68;;;18.40;99.90;;;;;;5092267;28;20161;-47
2023/06/09 05:07:14;;;;;;;18.33;13.65;;;18.20;99.90;;;;;;5091472;28;20212;-47
2023/06/09 05:09:39;;;;;;;13.25;11.85;;;18.50;99.90;;;;;;5091782;28;20192;-48
2023/06/09 05:12:06;;;;;;;17.83;13.77;;;18.80;99.90;;;;;;5091590;28;20165;-47
2023/06/09 05:14:31;;;;;;;21.45;16.02;;;18.90;99.90;;;;;;5091760;28;20174;-47
2023/06/09 05:16:58;;;;;;;17.33;13.93;;;19.10;99.90;;;;;;5091404;28;20197;-47
2023/06/09 05:19:24;;;;;;;15.55;13.25;;;;;;;;;;5091465;28;20725;-47
2023/06/09 05:21:49;;;;;;;20.85;14.63;;;19.20;99.90;;;;;;5092074;28;20636;-47
2023/06/09 05:24:15;;;;;;;19.10;13.98;;;19.00;99.90;;;;;;5091646;28;20173;-47
2023/06/09 05:26:41;;;;;;;21.00;13.32;;;18.90;99.90;;;;;;5091364;28;20169;-48
2023/06/09 05:29:06;;;;;;;12.18;10.98;;;19.20;99.90;;;;;;5091563;28;20170;-48
2023/06/09 05:31:32;;;;;;;14.95;10.88;;;19.00;99.90;;;;;;5091413;28;20165;-47
2023/06/09 05:33:58;;;;;;;13.90;10.93;;;19.20;99.90;;;;;;5091258;28;20632;-48
2023/06/09 05:36:24;;;;;;;14.57;11.32;;;19.40;99.90;;;;;;5093618;28;20218;-48
2023/06/09 05:38:49;;;;;;;14.52;11.32;;;19.60;99.90;;;;;;5095862;28;20660;-50
2023/06/09 05:41:15;;;;;;;11.77;10.52;;;19.30;99.90;;;;;;5095423;28;20162;-50
2023/06/09 05:43:41;;;;;;;16.50;11.30;;;19.60;99.90;;;;;;5095480;28;20173;-47
2023/06/09 05:46:06;;;;;;;11.52;10.52;;;19.40;99.90;;;;;;5095255;28;20164;-48
2023/06/09 05:48:32;;;;;;;13.00;10.25;;;19.40;99.90;;;;;;5095240;28;20161;-51
2023/06/09 05:50:58;;;;;;;12.75;8.98;;;19.60;99.90;;;;;;5095110;28;20252;-48
2023/06/09 05:53:24;;;;;;;8.82;7.93;;;19.90;99.90;;;;;;5095304;28;20244;-47
2023/06/09 05:55:52;;;;;;;9.68;8.13;;;19.70;99.90;;;;;;5095461;28;20219;-47
2023/06/09 05:58:18;;;;;;;11.45;7.78;;;19.70;99.90;;;;;;5095391;28;20205;-47
2023/06/09 06:00:44;;;;;;;9.80;7.82;;;20.00;99.90;;;;;;5095124;28;20169;-48
2023/06/09 06:03:11;;;;;;;8.50;7.72;;;19.80;99.90;;;;;;5094767;28;20169;-47
2023/06/09 06:05:37;;;;;;;10.07;7.78;;;19.80;99.90;;;;;;5094678;28;20223;-47
2023/06/09 06:08:03;;;;;;;9.43;8.30;;;20.10;99.90;;;;;;5094650;28;20209;-47
2023/06/09 06:10:28;;;;;;;8.38;7.55;;;19.70;99.90;;;;;;5094571;28;20165;-47
2023/06/09 06:12:57;;;;;;;9.77;6.85;;;20.30;99.90;;;;;;5094691;28;20172;-47
2023/06/09 06:15:24;;;;;;;8.45;7.13;;;20.40;99.90;;;;;;5094591;28;20215;-47
2023/06/09 06:17:49;;;;;;;7.80;7.00;;;20.30;99.90;;;;;;5095083;28;20216;-48
2023/06/09 06:20:15;;;;;;;8.18;7.22;;;20.30;99.90;;;;;;5093809;28;20405;-47
2023/06/09 06:22:44;;;;;;;8.02;6.88;;;;;;;;;;5094494;28;20161;-48
2023/06/09 06:25:13;;;;;;;8.35;6.68;;;20.50;99.90;;;;;;5091833;28;20173;-51
2023/06/09 06:27:41;;;;;;;7.20;5.97;;;21.00;99.90;;;;;;5092764;28;20300;-47
2023/06/09 06:30:11;;;;;;;7.22;5.90;;;20.50;99.90;;;;;;5092359;28;20648;-51
2023/06/09 06:32:39;;;;;;;6.95;6.25;;;20.60;99.90;;;;;;5092388;28;20171;-49
2023/06/09 06:35:07;;;;;;;6.82;5.55;;;20.50;99.90;;;;;;5092615;28;20201;-49
2023/06/09 06:37:33;;;;;;;7.22;5.35;;;21.00;99.90;;;;;;5092526;28;20213;-49
2023/06/09 06:39:58;;;;;;;7.53;5.72;;;21.20;99.90;;;;;;5092211;28;20214;-49
2023/06/09 06:42:24;;;;;;;6.72;5.25;;;21.10;99.90;;;;;;5092557;28;20169;-50
2023/06/09 06:44:49;;;;;;;7.70;5.72;;;21.10;99.90;;;;;;5092752;28;20222;-50
2023/06/09 06:47:15;;;;;;;6.25;5.47;;;21.10;99.90;;;;;;5091845;28;20193;-49
2023/06/09 06:49:40;;;;;;;7.18;5.95;;;21.20;99.90;;;;;;5092040;28;20180;-49
2023/06/09 06:52:06;;;;;;;7.13;6.10;;;20.90;99.90;;;;;;5091987;28;20161;-50
2023/06/09 06:54:32;;;;;;;8.95;6.43;;;21.20;99.90;;;;;;5092048;28;20165;-50
2023/06/09 06:56:57;;;;;;;8.23;5.65;;;21.60;99.90;;;;;;5092011;28;20246;-50
2023/06/09 06:59:23;;;;;;;6.35;5.68;;;21.60;99.90;;;;;;5092168;28;20217;-50
2023/06/09 07:01:49;;;;;;;6.78;5.60;;;21.50;99.90;;;;;;5092566;28;20173;-49
2023/06/09 07:04:15;;;;;;;9.48;6.47;;;21.90;99.90;;;;;;5091915;28;20169;-49
2023/06/09 07:06:41;;;;;;;7.80;6.13;;;21.80;99.90;;;;;;5091839;28;20621;-46
2023/06/09 07:09:07;;;;;;;7.38;6.28;;;21.60;99.90;;;;;;5091993;28;20181;-47
2023/06/09 07:11:32;;;;;;;6.50;5.63;;;21.60;99.90;;;;;;5091954;28;20181;-49
2023/06/09 07:13:58;;;;;;;8.10;5.78;;;21.90;99.90;;;;;;5091671;28;20169;-47
2023/06/09 07:16:24;;;;;;;8.32;6.32;;;;;;;;;;5091551;28;20168;-48
2023/06/09 07:18:50;;;;;;;7.20;6.40;;;21.60;99.90;;;;;;5091823;28;20213;-49
2023/06/09 07:21:15;;;;;;;9.27;6.35;;;22.00;99.90;;;;;;5091450;28;20431;-49
2023/06/09 07:23:41;;;;;;;9.15;7.20;;;22.20;99.90;;;;;;5091540;28;20256;-49
2023/06/09 07:26:06;;;;;;;7.80;6.82;;;22.30;99.90;;;;;;5091392;28;20158;-49
2023/06/09 07:28:32;;;;;;;6.93;6.32;;;;;;;;;;5091242;28;20169;-49
2023/06/09 07:30:58;;;;;;;6.55;5.93;;;;;;;;;;5091273;28;20256;-49
2023/06/09 07:33:24;;;;;;;7.25;6.47;;;;;;;;;;5091505;28;20165;-49
2023/06/09 07:35:52;;;;;;;6.60;6.00;;;22.60;99.90;;;;;;5091584;28;20644;-49
2023/06/09 07:38:20;;;;;;;7.32;5.82;;;;;;;;;;5091564;28;20212;-49
2023/06/09 07:40:46;;;;;;;5.97;5.40;;;22.20;99.90;;;;;;5091139;28;20158;-49
2023/06/09 07:43:11;;;;;;;7.95;5.72;;;22.50;99.90;;;;;;5091044;28;20176;-49
2023/06/09 07:45:37;;;;;;;6.43;5.82;;;23.20;99.90;;;;;;5090871;28;20201;-49
2023/06/09 07:48:03;;;;;;;9.63;7.03;;;22.80;99.90;;;;;;5091024;28;20518;-49
2023/06/09 07:50:28;;;;;;;7.80;6.25;;;22.90;99.90;;;;;;5090798;28;20652;-49
2023/06/09 07:52:54;;;;;;;6.68;6.07;;;23.10;99.90;;;;;;5090852;28;20169;-49
2023/06/09 07:55:20;;;;;;;8.90;5.80;;;23.20;99.90;;;;;;5091464;28;20177;-49
2023/06/09 07:57:46;;;;;;;7.70;5.97;;;23.30;99.90;;;;;;5090526;28;20194;-49
2023/06/09 08:00:13;;;;;;;7.05;5.53;;;23.60;99.90;;;;;;5090408;28;20158;-49
2023/06/09 08:02:42;;;;;;;6.32;5.70;;;23.60;99.90;;;;;;5090613;28;20651;-50
2023/06/09 08:05:08;;;;;;;6.88;5.72;;;23.60;99.90;;;;;;5090657;28;20246;-49
2023/06/09 08:07:34;;;;;;;6.05;5.45;;;23.60;99.90;;;;;;5090619;28;20228;-49
2023/06/09 08:10:00;;;;;;;7.47;6.05;;;23.90;99.90;;;;;;5090476;28;20530;-49
2023/06/09 08:12:25;;;;;;;6.22;5.63;;;23.70;99.90;;;;;;5090404;28;20161;-49
2023/06/09 08:14:51;;;;;;;5.93;5.32;;;;;;;;;;5090995;28;20577;-49
2023/06/09 08:17:17;;;;;;;7.70;5.90;;;23.70;99.90;;;;;;5090718;28;20656;-50
2023/06/09 08:19:42;;;;;;;8.07;6.18;;;24.10;99.90;;;;;;5090366;28;20169;-49
2023/06/09 08:22:08;;;;;;;5.82;5.32;;;24.50;99.90;;;;;;5090355;28;20171;-49
2023/06/09 08:24:33;;;;;;;8.00;5.30;;;24.20;99.90;;;;;;5090148;28;20168;-49
2023/06/09 08:26:59;;;;;;;6.45;5.85;;;24.00;99.90;;;;;;5090334;28;20184;-49
2023/06/09 08:29:25;;;;;;;6.93;4.90;;;24.00;99.90;;;;;;5090358;28;20183;-50
2023/06/09 08:31:51;;;;;;;6.15;5.30;;;;;;;;;;5090598;28;20591;-49
2023/06/09 08:34:16;;;;;;;6.45;5.22;;;24.40;99.90;;;;;;5090534;28;20177;-49
2023/06/09 08:36:42;;;;;;;6.40;5.28;;;24.00;99.90;;;;;;5090191;28;20249;-49
2023/06/09 08:39:07;;;;;;;5.05;4.55;;;24.60;99.90;;;;;;5072025;28;20654;-49
2023/06/09 08:41:38;;;;;;;5.57;4.72;;;24.10;99.90;;;;;;5089984;28;20568;-49
2023/06/09 08:44:04;;;;;;;6.40;5.18;;;24.10;99.90;;;;;;5090053;28;20173;-50
2023/06/09 08:46:38;;;;;;;5.28;4.65;;;24.70;99.90;;;;;;5089945;28;20157;-50
2023/06/09 08:49:03;;;;;;;5.75;5.25;;;24.80;99.90;;;;;;5088648;28;20174;-51
2023/06/09 08:51:30;;;;;;;5.43;4.93;;;24.90;99.90;;;;;;5090005;28;20261;-50
2023/06/09 08:53:57;;;;;;;6.32;4.60;;;24.80;99.90;;;;;;5090049;28;20184;-50
2023/06/09 08:56:22;;;;;;;5.90;5.05;;;24.90;99.90;;;;;;5089849;28;20750;-49
2023/06/09 08:58:50;;;;;;;6.72;5.00;;;24.80;99.90;;;;;;5090110;28;20330;-50
2023/06/09 09:01:17;;;;;;;7.78;5.38;;;24.70;99.90;;;;;;5090155;28;20256;-50
2023/06/09 09:03:43;;;;;;;6.35;5.40;;;25.00;99.90;;;;;;5089609;28;20177;-50
2023/06/09 09:06:09;;;;;;;6.85;5.10;;;24.80;99.90;;;;;;5089845;28;20165;-49
2023/06/09 09:08:35;;;;;;;5.38;4.85;;;;;;;;;;5089747;28;20221;-51
2023/06/09 09:11:01;;;;;;;8.23;5.80;;;25.30;99.90;;;;;;5093236;28;20193;-50
2023/06/09 09:13:30;;;;;;;5.40;4.90;;;25.90;99.90;;;;;;5094010;28;20199;-50
2023/06/09 09:15:58;;;;;;;6.45;5.43;;;26.10;99.90;;;;;;5093186;28;20204;-49
2023/06/09 09:18:28;;;;;;;6.43;5.22;;;25.70;99.90;;;;;;5093736;28;20344;-50
2023/06/09 09:20:55;;;;;;;7.70;5.50;;;25.70;99.90;;;;;;5093711;28;20180;-49
2023/06/09 09:23:29;;;;;;;8.60;5.78;;;25.50;99.90;;;;;;5094274;28;20179;-49
2023/06/09 09:25:54;;;;;;;7.55;5.63;;;25.70;99.90;;;;;;5094043;28;20171;-49
2023/06/09 09:28:20;;;;;;;6.57;5.28;;;25.50;99.90;;;;;;5094042;28;20542;-49
2023/06/09 09:30:47;;;;;;;6.82;5.05;;;25.60;99.90;;;;;;5093823;28;20180;-49
2023/06/09 09:33:13;;;;;;;5.70;5.10;;;25.80;99.90;;;;;;5093918;28;20179;-49
2023/06/09 09:35:42;;;;;;;6.60;5.47;;;25.90;99.90;;;;;;5094011;28;20165;-49
2023/06/09 09:38:19;;;;;;;6.05;5.45;;;26.20;99.90;;;;;;5093308;28;20211;-50
2023/06/09 09:40:47;;;;;;;6.75;5.43;;;26.30;99.90;;;;;;5093388;28;20533;-49
2023/06/09 09:43:13;;;;;;;7.30;5.43;;;26.40;99.90;;;;;;5093622;28;20277;-49
2023/06/09 09:45:41;;;;;;;5.85;5.13;;;26.40;99.90;;;;;;5093333;28;20181;-50
2023/06/09 09:48:09;;;;;;;6.63;4.97;;;26.50;99.90;;;;;;5093398;28;20173;-49
2023/06/09 09:50:36;;;;;;;5.93;5.25;;;26.20;99.90;;;;;;5092999;28;20628;-49
2023/06/09 09:53:06;;;;;;;7.65;5.35;;;26.50;99.90;;;;;;5093000;28;20570;-49
2023/06/09 09:55:36;;;;;;;6.47;5.20;;;26.30;99.90;;;;;;5093245;28;20636;-49
2023/06/09 09:58:06;;;;;;;6.47;5.88;;;26.50;99.90;;;;;;5092944;28;20668;-49
2023/06/09 10:00:36;;;;;;;5.72;4.95;;;26.40;99.90;;;;;;5093317;28;20244;-49
2023/06/09 10:03:18;;;;;;;5.88;4.75;;;26.80;99.90;;;;;;5093044;28;20169;-50
2023/06/09 10:05:49;;;;;;;6.40;5.60;;;27.30;99.90;;;;;;5093346;28;20256;-49
2023/06/09 10:08:26;;;;;;;5.88;5.38;;;27.30;99.90;;;;;;5074518;28;20766;-50
2023/06/09 10:10:53;;;;;;;6.60;5.15;;;27.30;99.90;;;;;;5092744;28;20168;-49
2023/06/09 10:13:20;;;;;;;5.80;5.20;;;27.20;99.90;;;;;;5093327;28;20168;-49
2023/06/09 10:15:46;;;;;;;6.53;5.68;;;27.40;99.90;;;;;;5093364;28;20169;-49
2023/06/09 10:18:12;;;;;;;5.68;5.18;;;27.40;99.90;;;;;;5093012;28;20211;-48
2023/06/09 10:20:42;;;;;;;5.82;5.32;;;27.70;99.90;;;;;;5092628;28;20709;-52
2023/06/09 10:23:08;;;;;;;6.80;5.30;;;28.00;99.90;;;;;;5092490;28;20173;-50
2023/06/09 10:25:34;;;;;;;5.72;5.07;;;27.10;99.90;;;;;;5092743;28;20210;-51
2023/06/09 10:27:59;;;;;;;5.80;5.20;;;27.50;99.90;;;;;;5092557;28;20173;-49
2023/06/09 10:30:25;;;;;;;7.60;5.18;;;27.60;99.90;;;;;;5092849;28;20204;-49
2023/06/09 10:33:04;;;;;;;6.20;5.60;;;27.70;99.90;;;;;;5092743;28;20527;-49
2023/06/09 10:35:32;;;;;;;7.63;5.28;;;27.40;99.90;;;;;;5092325;28;20172;-49
2023/06/09 10:37:59;;;;;;;6.55;4.85;;;27.50;99.90;;;;;;5092523;28;20547;-50
2023/06/09 10:40:42;;;;;;;5.45;4.47;;;28.10;99.90;;;;;;5074179;28;20169;-50
2023/06/09 10:43:42;;;;;;;5.25;4.20;;;27.70;99.90;;;;;;5092147;28;20602;-50
2023/06/09 10:46:12;;;;;;;5.07;4.68;;;28.10;99.90;;;;;;5087906;28;20191;-51
2023/06/09 10:48:42;;;;;;;4.22;3.85;;;27.90;99.50;;;;;;5092511;28;20229;-50
2023/06/09 10:51:26;;;;;;;5.07;4.03;;;28.20;99.90;;;;;;5092297;28;20507;-46
2023/06/09 10:54:07;;;;;;;5.18;4.32;;;28.20;97.50;;;;;;5091896;28;20222;-47
2023/06/09 10:56:37;;;;;;;4.10;3.70;;;27.90;98.60;;;;;;5093268;28;20176;-47
2023/06/09 10:59:03;;;;;;;4.35;3.95;;;28.40;97.20;;;;;;5093766;28;20207;-48
2023/06/09 11:01:29;;;;;;;4.75;4.35;;;28.40;97.10;;;;;;5093498;28;20187;-49
2023/06/09 11:03:55;;;;;;;4.35;3.95;;;28.20;96.80;;;;;;5093747;28;20532;-49
2023/06/09 11:06:21;;;;;;;7.25;4.13;;;;;;;;;;5094037;28;20234;-49
2023/06/09 11:09:11;;;;;;;4.75;4.10;;;28.50;95.90;;;;;;5093961;28;20200;-49
2023/06/09 11:11:53;;;;;;;4.78;3.45;;;28.80;95.00;;;;;;5093435;28;20255;-48
2023/06/09 11:14:44;;;;;;;4.97;4.03;;;28.50;95.40;;;;;;5075614;28;20218;-49
2023/06/09 11:17:17;;;;;;;4.57;4.18;;;28.60;94.70;;;;;;5093598;28;20205;-50
2023/06/09 11:19:43;;;;;;;6.35;4.68;;;28.80;95.20;;;;;;5093312;28;20179;-50
2023/06/09 11:22:11;;;;;;;4.65;4.15;;;28.80;94.30;;;;;;5093306;28;20165;-48
2023/06/09 11:24:49;;;;;;;4.85;3.72;;;28.90;95.00;;;;;;5093260;28;20178;-48
2023/06/09 11:27:22;;;;;;;6.13;4.13;;;28.80;95.40;;;;;;5093263;28;20214;-48
2023/06/09 11:30:15;;;;;;;4.95;4.05;;;29.00;93.70;;;;;;5093551;28;20620;-47
2023/06/09 11:32:51;;;;;;;4.20;3.80;;;28.90;93.70;;;;;;5092539;28;20243;-49
2023/06/09 11:35:23;;;;;;;4.35;3.80;;;28.70;92.90;;;;;;5093368;28;20173;-47
2023/06/09 11:37:58;;;;;;;5.53;4.22;;;29.20;93.30;;;;;;5093336;28;20562;-47
2023/06/09 11:40:26;;;;;;;7.80;4.20;;;28.80;92.20;;;;;;5092908;28;20533;-47
2023/06/09 11:42:51;;;;;;;8.20;4.13;;;29.30;92.80;;;;;;5092937;28;20168;-47
2023/06/09 11:45:17;;;;;;;6.35;4.03;;;29.40;92.40;;;;;;5093358;28;20157;-47
2023/06/09 11:47:44;;;;;;;6.13;4.05;;;29.40;92.70;;;;;;5092861;28;20165;-47
2023/06/09 11:50:12;;;;;;;6.18;4.47;;;29.20;92.60;;;;;;5092834;28;20415;-47
2023/06/09 11:52:43;;;;;;;4.57;3.70;;;28.80;91.40;;;;;;5093012;28;20214;-47
2023/06/09 11:55:11;;;;;;;6.68;3.40;;;29.10;92.50;;;;;;5092701;28;20234;-47
2023/06/09 11:57:37;;;;;;;4.10;3.70;;;29.30;92.00;;;;;;5092710;28;20197;-47
2023/06/09 12:00:14;;;;;;;4.30;3.90;;;30.20;92.90;;;;;;5074346;28;20169;-47
2023/06/09 12:02:43;;;;;;;5.93;5.13;;;29.90;92.30;;;;;;5092756;28;20184;-47
2023/06/09 12:05:10;;;;;;;5.10;3.67;;;30.00;92.10;;;;;;5092713;28;20169;-47
2023/06/09 12:07:36;;;;;;;5.60;4.10;;;29.50;90.70;;;;;;5092228;28;20216;-48
2023/06/09 12:10:03;;;;;;;6.55;3.80;;;29.60;90.60;;;;;;5092517;28;20165;-47
2023/06/09 12:12:29;;;;;;;5.35;4.10;;;29.50;91.20;;;;;;5092677;28;20172;-47
2023/06/09 12:14:54;;;;;;;4.65;4.20;;;29.50;88.90;;;;;;5092280;28;20659;-47
2023/06/09 12:17:20;;;;;;;4.85;4.18;;;29.60;90.10;;;;;;5092507;28;20193;-47
2023/06/09 12:19:49;;;;;;;8.57;4.35;;;29.80;90.40;;;;;;5092909;28;20183;-47
2023/06/09 12:22:16;;;;;;;6.45;4.18;;;30.30;89.70;;;;;;5092510;28;20176;-48
2023/06/09 12:24:43;;;;;;;5.88;4.45;;;29.70;87.30;;;;;;5092399;28;20196;-48
2023/06/09 12:27:12;;;;;;;4.43;3.78;;;30.10;87.00;;;;;;5092289;28;20176;-47
2023/06/09 12:29:39;;;;;;;4.40;4.00;;;30.00;87.40;;;;;;5092371;28;20161;-47
2023/06/09 12:32:05;;;;;;;5.25;3.80;;;30.40;87.20;;;;;;5092274;28;20351;-47
2023/06/09 12:34:32;;;;;;;5.95;3.45;;;30.40;82.80;;;;;;5092100;28;20650;-47
2023/06/09 12:36:58;;;;;;;5.95;3.95;;;30.30;84.80;;;;;;5091961;28;20203;-47
2023/06/09 12:39:34;;;;;;;5.80;3.80;;;30.40;85.70;;;;;;5091968;28;20169;-47
2023/06/09 12:42:13;;;;;;;5.32;3.80;;;30.30;82.20;;;;;;5092127;28;20172;-50
2023/06/09 12:44:39;;;;;;;4.10;3.70;;;30.30;85.20;;;;;;5091558;28;20168;-50
2023/06/09 12:47:12;;;;;;;4.90;3.97;;;30.40;84.90;;;;;;5073719;28;20169;-48